sensor_id;sensor_type;location;lat;lon;timestamp;pressure;altitude;pressure_sealevel;temperature;humidity
12987;BME280;58897;51.960;5.582;2023-02-11T00:01:47;103119.53;;;5.80;100.00
12987;BME280;58897;51.960;5.582;2023-02-11T00:04:13;103123.13;;;5.79;100.00
12987;BME280;58897;51.960;5.582;2023-02-11T00:06:40;103120.19;;;5.85;100.00
12987;BME280;58897;51.960;5.582;2023-02-11T00:09:07;103119.78;;;5.76;100.00
12987;BME280;58897;51.960;5.582;2023-02-11T00:11:33;103133.09;;;5.77;100.00
12987;BME280;58897;51.960;5.582;2023-02-11T00:14:02;103138.41;;;5.79;100.00
12987;BME280;58897;51.960;5.582;2023-02-11T00:16:30;103142.72;;;5.81;100.00
12987;BME280;58897;51.960;5.582;2023-02-11T00:18:58;103132.22;;;5.77;100.00
12987;BME280;58897;51.960;5.582;2023-02-11T00:21:25;103128.75;;;5.75;100.00
12987;BME280;58897;51.960;5.582;2023-02-11T00:23:53;103127.81;;;5.76;100.00
12987;BME280;58897;51.960;5.582;2023-02-11T00:26:25;103124.00;;;5.80;100.00
12987;BME280;58897;51.960;5.582;2023-02-11T00:28:53;103123.22;;;5.78;100.00
12987;BME280;58897;51.960;5.582;2023-02-11T00:31:21;103128.75;;;5.75;100.00
12987;BME280;58897;51.960;5.582;2023-02-11T00:33:48;103122.44;;;5.76;100.00
12987;BME280;58897;51.960;5.582;2023-02-11T00:36:18;103128.59;;;5.78;100.00
12987;BME280;58897;51.960;5.582;2023-02-11T00:38:46;103130.16;;;5.82;100.00
12987;BME280;58897;51.960;5.582;2023-02-11T00:41:14;103117.72;;;5.81;100.00
12987;BME280;58897;51.960;5.582;2023-02-11T00:43:40;103120.59;;;5.76;100.00
12987;BME280;58897;51.960;5.582;2023-02-11T00:46:08;103121.47;;;5.77;100.00
12987;BME280;58897;51.960;5.582;2023-02-11T00:48:35;103124.09;;;5.78;100.00
12987;BME280;58897;51.960;5.582;2023-02-11T00:51:02;103124.09;;;5.78;100.00
12987;BME280;58897;51.960;5.582;2023-02-11T00:53:30;103131.34;;;5.76;100.00
12987;BME280;58897;51.960;5.582;2023-02-11T00:55:56;103138.44;;;5.77;100.00
12987;BME280;58897;51.960;5.582;2023-02-11T00:58:23;103136.19;;;5.87;100.00
12987;BME280;58897;51.960;5.582;2023-02-11T01:00:50;103144.59;;;5.79;100.00
12987;BME280;58897;51.960;5.582;2023-02-11T01:03:16;103140.25;;;5.77;100.00
12987;BME280;58897;51.960;5.582;2023-02-11T01:05:43;103139.09;;;5.82;100.00
12987;BME280;58897;51.960;5.582;2023-02-11T01:08:10;103134.84;;;5.78;100.00
12987;BME280;58897;51.960;5.582;2023-02-11T01:10:36;103121.56;;;5.75;100.00
12987;BME280;58897;51.960;5.582;2023-02-11T01:13:03;103124.16;;;5.77;100.00
12987;BME280;58897;51.960;5.582;2023-02-11T01:15:32;103106.56;;;5.71;100.00
12987;BME280;58897;51.960;5.582;2023-02-11T01:17:58;103101.19;;;5.71;100.00
12987;BME280;58897;51.960;5.582;2023-02-11T01:20:26;103106.34;;;5.76;100.00
12987;BME280;58897;51.960;5.582;2023-02-11T01:22:53;103100.38;;;5.71;100.00
12987;BME280;58897;51.960;5.582;2023-02-11T01:25:19;103093.16;;;5.71;100.00
12987;BME280;58897;51.960;5.582;2023-02-11T01:27:46;103084.41;;;5.68;100.00
12987;BME280;58897;51.960;5.582;2023-02-11T01:30:13;103093.69;;;5.60;100.00
12987;BME280;58897;51.960;5.582;2023-02-11T01:32:40;103088.34;;;5.60;100.00
12987;BME280;58897;51.960;5.582;2023-02-11T01:35:06;103081.25;;;5.59;100.00
12987;BME280;58897;51.960;5.582;2023-02-11T01:37:34;103080.09;;;5.65;100.00
12987;BME280;58897;51.960;5.582;2023-02-11T01:40:01;103073.13;;;5.61;100.00
12987;BME280;58897;51.960;5.582;2023-02-11T01:42:28;103085.50;;;5.63;100.00
12987;BME280;58897;51.960;5.582;2023-02-11T01:44:56;103103.44;;;5.63;100.00
12987;BME280;58897;51.960;5.582;2023-02-11T01:47:23;103104.13;;;5.67;100.00
12987;BME280;58897;51.960;5.582;2023-02-11T01:50:00;103111.28;;;5.66;100.00
12987;BME280;58897;51.960;5.582;2023-02-11T01:52:35;103120.31;;;5.65;100.00
12987;BME280;58897;51.960;5.582;2023-02-11T01:55:10;103115.81;;;5.66;100.00
12987;BME280;58897;51.960;5.582;2023-02-11T01:57:59;103117.28;;;5.71;100.00
12987;BME280;58897;51.960;5.582;2023-02-11T02:00:36;103105.63;;;5.72;100.00
12987;BME280;58897;51.960;5.582;2023-02-11T02:03:11;103094.03;;;5.72;100.00
12987;BME280;58897;51.960;5.582;2023-02-11T02:05:45;103096.72;;;5.72;100.00
12987;BME280;58897;51.960;5.582;2023-02-11T02:08:28;103101.84;;;5.76;100.00
12987;BME280;58897;51.960;5.582;2023-02-11T02:10:57;103101.06;;;5.74;100.00
12987;BME280;58897;51.960;5.582;2023-02-11T02:13:27;103105.78;;;5.69;100.00
12987;BME280;58897;51.960;5.582;2023-02-11T02:15:58;103108.41;;;5.71;100.00
12987;BME280;58897;51.960;5.582;2023-02-11T02:27:12;103104.38;;;5.62;100.00
12987;BME280;58897;51.960;5.582;2023-02-11T02:35:54;103114.84;;;5.67;100.00
12987;BME280;58897;51.960;5.582;2023-02-11T02:38:30;103101.97;;;5.56;100.00
12987;BME280;58897;51.960;5.582;2023-02-11T02:41:03;103097.41;;;5.58;100.00
12987;BME280;58897;51.960;5.582;2023-02-11T02:43:32;103094.72;;;5.58;100.00
12987;BME280;58897;51.960;5.582;2023-02-11T02:46:17;103089.31;;;5.59;100.00
12987;BME280;58897;51.960;5.582;2023-02-11T02:48:45;103090.56;;;5.52;100.00
12987;BME280;58897;51.960;5.582;2023-02-11T02:57:23;103092.13;;;5.56;100.00
12987;BME280;58897;51.960;5.582;2023-02-11T03:04:51;103090.38;;;5.55;100.00
12987;BME280;58897;51.960;5.582;2023-02-11T03:10:25;103084.38;;;5.50;100.00
12987;BME280;58897;51.960;5.582;2023-02-11T03:12:54;103091.34;;;5.54;100.00
12987;BME280;58897;51.960;5.582;2023-02-11T03:15:22;103093.06;;;5.55;100.00
12987;BME280;58897;51.960;5.582;2023-02-11T03:17:51;103081.56;;;5.53;100.00
12987;BME280;58897;51.960;5.582;2023-02-11T03:20:21;103084.56;;;5.47;100.00
12987;BME280;58897;51.960;5.582;2023-02-11T03:22:52;103092.66;;;5.46;100.00
12987;BME280;58897;51.960;5.582;2023-02-11T03:25:27;103088.81;;;5.51;100.00
12987;BME280;58897;51.960;5.582;2023-02-11T03:30:53;103080.84;;;5.50;100.00
12987;BME280;58897;51.960;5.582;2023-02-11T03:33:33;103070.97;;;5.50;100.00
12987;BME280;58897;51.960;5.582;2023-02-11T03:36:08;103070.19;;;5.48;100.00
12987;BME280;58897;51.960;5.582;2023-02-11T03:38:40;103071.84;;;5.51;100.00
12987;BME280;58897;51.960;5.582;2023-02-11T03:41:08;103067.50;;;5.48;100.00
12987;BME280;58897;51.960;5.582;2023-02-11T03:43:41;103067.13;;;5.56;100.00
12987;BME280;58897;51.960;5.582;2023-02-11T03:46:09;103067.38;;;5.51;100.00
12987;BME280;58897;51.960;5.582;2023-02-11T03:48:40;103072.97;;;5.47;100.00
12987;BME280;58897;51.960;5.582;2023-02-11T03:51:11;103066.59;;;5.49;100.00
12987;BME280;58897;51.960;5.582;2023-02-11T03:53:42;103063.56;;;5.55;100.00
12987;BME280;58897;51.960;5.582;2023-02-11T03:56:13;103060.88;;;5.55;100.00
12987;BME280;58897;51.960;5.582;2023-02-11T03:58:43;103060.19;;;5.52;100.00
12987;BME280;58897;51.960;5.582;2023-02-11T04:01:10;103058.53;;;5.49;100.00
12987;BME280;58897;51.960;5.582;2023-02-11T04:03:37;103055.13;;;5.46;100.00
12987;BME280;58897;51.960;5.582;2023-02-11T04:06:04;103047.19;;;5.44;100.00
12987;BME280;58897;51.960;5.582;2023-02-11T04:08:30;103057.66;;;5.49;100.00
12987;BME280;58897;51.960;5.582;2023-02-11T04:10:58;103063.13;;;5.47;100.00
12987;BME280;58897;51.960;5.582;2023-02-11T04:13:25;103059.56;;;5.47;100.00
12987;BME280;58897;51.960;5.582;2023-02-11T04:15:51;103065.94;;;5.44;100.00
12987;BME280;58897;51.960;5.582;2023-02-11T04:18:18;103082.66;;;5.49;100.00
12987;BME280;58897;51.960;5.582;2023-02-11T04:20:45;103089.69;;;5.52;100.00
12987;BME280;58897;51.960;5.582;2023-02-11T04:23:11;103092.91;;;5.58;100.00
12987;BME280;58897;51.960;5.582;2023-02-11T04:25:38;103090.38;;;5.55;100.00
12987;BME280;58897;51.960;5.582;2023-02-11T04:28:04;103093.00;;;5.57;100.00
12987;BME280;58897;51.960;5.582;2023-02-11T04:30:31;103091.50;;;5.51;100.00
12987;BME280;58897;51.960;5.582;2023-02-11T04:32:57;103089.69;;;5.52;100.00
12987;BME280;58897;51.960;5.582;2023-02-11T04:35:24;103081.00;;;5.47;100.00
12987;BME280;58897;51.960;5.582;2023-02-11T04:37:50;103079.03;;;5.50;100.00
12987;BME280;58897;51.960;5.582;2023-02-11T04:40:17;103077.44;;;5.46;100.00
12987;BME280;58897;51.960;5.582;2023-02-11T04:42:44;103083.59;;;5.48;100.00
12987;BME280;58897;51.960;5.582;2023-02-11T04:45:10;103094.81;;;5.56;100.00
12987;BME280;58897;51.960;5.582;2023-02-11T04:47:37;103089.19;;;5.44;100.00
12987;BME280;58897;51.960;5.582;2023-02-11T04:50:03;103088.31;;;5.43;100.00
12987;BME280;58897;51.960;5.582;2023-02-11T04:52:30;103092.81;;;5.43;100.00
12987;BME280;58897;51.960;5.582;2023-02-11T04:54:57;103091.88;;;5.44;100.00
12987;BME280;58897;51.960;5.582;2023-02-11T04:57:23;103082.22;;;5.40;100.00
12987;BME280;58897;51.960;5.582;2023-02-11T04:59:50;103084.75;;;5.43;100.00
12987;BME280;58897;51.960;5.582;2023-02-11T05:02:16;103082.31;;;5.38;100.00
12987;BME280;58897;51.960;5.582;2023-02-11T05:04:43;103083.09;;;5.40;100.00
12987;BME280;58897;51.960;5.582;2023-02-11T05:07:09;103079.41;;;5.43;100.00
12987;BME280;58897;51.960;5.582;2023-02-11T05:09:36;103082.66;;;5.49;100.00
12987;BME280;58897;51.960;5.582;2023-02-11T05:12:02;103080.19;;;5.45;100.00
12987;BME280;58897;51.960;5.582;2023-02-11T05:14:29;103076.44;;;5.49;100.00
12987;BME280;58897;51.960;5.582;2023-02-11T05:16:55;103077.75;;;5.40;100.00
12987;BME280;58897;51.960;5.582;2023-02-11T05:19:22;103083.25;;;5.37;100.00
12987;BME280;58897;51.960;5.582;2023-02-11T05:21:48;103087.69;;;5.38;100.00
12987;BME280;58897;51.960;5.582;2023-02-11T05:24:28;103083.09;;;5.40;100.00
12987;BME280;58897;51.960;5.582;2023-02-11T05:26:54;103085.56;;;5.45;100.00
12987;BME280;58897;51.960;5.582;2023-02-11T05:29:21;103092.91;;;5.41;100.00
12987;BME280;58897;51.960;5.582;2023-02-11T05:31:47;103093.44;;;5.48;100.00
12987;BME280;58897;51.960;5.582;2023-02-11T05:34:14;103087.38;;;5.44;100.00
12987;BME280;58897;51.960;5.582;2023-02-11T05:36:40;103081.16;;;5.44;100.00
12987;BME280;58897;51.960;5.582;2023-02-11T05:39:07;103077.84;;;5.39;100.00
12987;BME280;58897;51.960;5.582;2023-02-11T05:41:33;103082.03;;;5.44;100.00
12987;BME280;58897;51.960;5.582;2023-02-11T05:44:00;103087.31;;;5.46;100.00
12987;BME280;58897;51.960;5.582;2023-02-11T05:46:26;103086.44;;;5.45;100.00
12987;BME280;58897;51.960;5.582;2023-02-11T05:48:53;103082.22;;;5.40;100.00
12987;BME280;58897;51.960;5.582;2023-02-11T05:51:22;103075.00;;;5.42;100.00
12987;BME280;58897;51.960;5.582;2023-02-11T05:53:50;103083.09;;;5.40;100.00
12987;BME280;58897;51.960;5.582;2023-02-11T05:56:17;103086.94;;;5.35;100.00
12987;BME280;58897;51.960;5.582;2023-02-11T05:58:43;103085.88;;;5.39;100.00
12987;BME280;58897;51.960;5.582;2023-02-11T06:01:10;103093.13;;;5.37;100.00
12987;BME280;58897;51.960;5.582;2023-02-11T06:03:36;103090.28;;;5.40;100.00
12987;BME280;58897;51.960;5.582;2023-02-11T06:06:03;103090.38;;;5.38;100.00
12987;BME280;58897;51.960;5.582;2023-02-11T06:08:30;103093.69;;;5.43;100.00
12987;BME280;58897;51.960;5.582;2023-02-11T06:10:56;103099.28;;;5.39;100.00
12987;BME280;58897;51.960;5.582;2023-02-11T06:13:22;103097.47;;;5.39;100.00
12987;BME280;58897;51.960;5.582;2023-02-11T06:15:56;103101.38;;;5.32;100.00
12987;BME280;58897;51.960;5.582;2023-02-11T06:18:23;103093.28;;;5.34;100.00
12987;BME280;58897;51.960;5.582;2023-02-11T06:20:50;103101.81;;;5.42;100.00
12987;BME280;58897;51.960;5.582;2023-02-11T06:23:18;103104.69;;;5.37;100.00
12987;BME280;58897;51.960;5.582;2023-02-11T06:25:44;103101.97;;;5.39;100.00
12987;BME280;58897;51.960;5.582;2023-02-11T06:28:11;103098.13;;;5.44;100.00
12987;BME280;58897;51.960;5.582;2023-02-11T06:30:38;103094.47;;;5.45;100.00
12987;BME280;58897;51.960;5.582;2023-02-11T06:33:05;103094.78;;;5.39;100.00
12987;BME280;58897;51.960;5.582;2023-02-11T06:35:31;103093.19;;;5.35;100.00
12987;BME280;58897;51.960;5.582;2023-02-11T06:37:58;103097.38;;;5.41;100.00
12987;BME280;58897;51.960;5.582;2023-02-11T06:40:25;103099.19;;;5.40;100.00
12987;BME280;58897;51.960;5.582;2023-02-11T06:42:52;103107.31;;;5.39;100.00
12987;BME280;58897;51.960;5.582;2023-02-11T06:45:18;103104.50;;;5.42;100.00
12987;BME280;58897;51.960;5.582;2023-02-11T06:47:45;103109.28;;;5.35;100.00
12987;BME280;58897;51.960;5.582;2023-02-11T06:50:13;103101.88;;;5.40;100.00
12987;BME280;58897;51.960;5.582;2023-02-11T06:52:40;103097.69;;;5.35;100.00
12987;BME280;58897;51.960;5.582;2023-02-11T06:55:06;103104.56;;;5.40;100.00
12987;BME280;58897;51.960;5.582;2023-02-11T06:57:33;103102.84;;;5.39;100.00
12987;BME280;58897;51.960;5.582;2023-02-11T06:59:59;103111.72;;;5.40;100.00
12987;BME280;58897;51.960;5.582;2023-02-11T07:02:26;103111.56;;;5.43;100.00
12987;BME280;58897;51.960;5.582;2023-02-11T07:04:52;103114.84;;;5.49;100.00
12987;BME280;58897;51.960;5.582;2023-02-11T07:07:19;103120.78;;;5.37;100.00
12987;BME280;58897;51.960;5.582;2023-02-11T07:09:45;103112.03;;;5.34;100.00
12987;BME280;58897;51.960;5.582;2023-02-11T07:12:12;103109.91;;;5.40;100.00
12987;BME280;58897;51.960;5.582;2023-02-11T07:14:38;103111.66;;;5.41;100.00
12987;BME280;58897;51.960;5.582;2023-02-11T07:17:05;103107.97;;;5.44;100.00
12987;BME280;58897;51.960;5.582;2023-02-11T07:19:32;103129.63;;;5.39;100.00
12987;BME280;58897;51.960;5.582;2023-02-11T07:21:58;103124.28;;;5.39;100.00
12987;BME280;58897;51.960;5.582;2023-02-11T07:24:24;103132.53;;;5.35;100.00
12987;BME280;58897;51.960;5.582;2023-02-11T07:26:52;103139.25;;;5.43;100.00
12987;BME280;58897;51.960;5.582;2023-02-11T07:29:19;103144.69;;;5.42;100.00
12987;BME280;58897;51.960;5.582;2023-02-11T07:31:45;103142.22;;;5.37;100.00
12987;BME280;58897;51.960;5.582;2023-02-11T07:34:12;103137.34;;;5.45;100.00
12987;BME280;58897;51.960;5.582;2023-02-11T07:36:39;103147.16;;;5.46;100.00
12987;BME280;58897;51.960;5.582;2023-02-11T07:39:05;103145.72;;;5.39;100.00
12987;BME280;58897;51.960;5.582;2023-02-11T07:41:32;103143.69;;;5.44;100.00
12987;BME280;58897;51.960;5.582;2023-02-11T07:44:03;103150.56;;;5.50;100.00
12987;BME280;58897;51.960;5.582;2023-02-11T07:46:30;103144.97;;;5.54;100.00
12987;BME280;58897;51.960;5.582;2023-02-11T07:48:56;103154.81;;;5.54;100.00
12987;BME280;58897;51.960;5.582;2023-02-11T07:51:26;103149.53;;;5.52;100.00
12987;BME280;58897;51.960;5.582;2023-02-11T07:53:54;103153.94;;;5.53;100.00
12987;BME280;58897;51.960;5.582;2023-02-11T07:56:21;103151.91;;;5.58;100.00
12987;BME280;58897;51.960;5.582;2023-02-11T07:58:49;103159.94;;;5.58;100.00
12987;BME280;58897;51.960;5.582;2023-02-11T08:01:18;103151.19;;;5.55;100.00
12987;BME280;58897;51.960;5.582;2023-02-11T08:03:47;103159.25;;;5.55;100.00
12987;BME280;58897;51.960;5.582;2023-02-11T08:06:15;103155.31;;;5.62;100.00
12987;BME280;58897;51.960;5.582;2023-02-11T08:08:42;103151.53;;;5.66;100.00
12987;BME280;58897;51.960;5.582;2023-02-11T08:11:17;103165.09;;;5.63;100.00
12987;BME280;58897;51.960;5.582;2023-02-11T08:13:45;103159.00;;;5.59;100.00
12987;BME280;58897;51.960;5.582;2023-02-11T08:18:46;103157.84;;;5.65;100.00
12987;BME280;58897;51.960;5.582;2023-02-11T08:21:13;103155.66;;;5.73;100.00
12987;BME280;58897;51.960;5.582;2023-02-11T08:23:41;103158.25;;;5.75;100.00
12987;BME280;58897;51.960;5.582;2023-02-11T08:26:13;103157.22;;;5.77;100.00
12987;BME280;58897;51.960;5.582;2023-02-11T08:28:42;103159.63;;;5.83;100.00
12987;BME280;58897;51.960;5.582;2023-02-11T08:31:14;103160.94;;;5.75;100.00
12987;BME280;58897;51.960;5.582;2023-02-11T08:33:41;103168.81;;;5.78;100.00
12987;BME280;58897;51.960;5.582;2023-02-11T08:36:13;103160.53;;;5.82;100.00
12987;BME280;58897;51.960;5.582;2023-02-11T08:38:41;103166.44;;;5.90;100.00
12987;BME280;58897;51.960;5.582;2023-02-11T08:41:08;103168.97;;;5.93;100.00
12987;BME280;58897;51.960;5.582;2023-02-11T08:43:35;103173.16;;;5.99;100.00
12987;BME280;58897;51.960;5.582;2023-02-11T08:46:02;103164.47;;;5.94;100.00
12987;BME280;58897;51.960;5.582;2023-02-11T08:48:29;103170.31;;;6.02;100.00
12987;BME280;58897;51.960;5.582;2023-02-11T08:50:55;103179.88;;;6.07;100.00
12987;BME280;58897;51.960;5.582;2023-02-11T08:53:23;103175.84;;;5.99;100.00
12987;BME280;58897;51.960;5.582;2023-02-11T08:55:52;103175.91;;;5.97;100.00
12987;BME280;58897;51.960;5.582;2023-02-11T08:58:20;103178.28;;;6.03;100.00
12987;BME280;58897;51.960;5.582;2023-02-11T09:00:48;103182.00;;;6.01;100.00
12987;BME280;58897;51.960;5.582;2023-02-11T09:03:15;103187.19;;;6.04;100.00
12987;BME280;58897;51.960;5.582;2023-02-11T09:05:43;103191.53;;;6.06;100.00
12987;BME280;58897;51.960;5.582;2023-02-11T09:08:10;103200.22;;;6.11;100.00
12987;BME280;58897;51.960;5.582;2023-02-11T09:10:37;103202.19;;;6.08;100.00
12987;BME280;58897;51.960;5.582;2023-02-11T09:13:04;103198.19;;;6.16;100.00
12987;BME280;58897;51.960;5.582;2023-02-11T09:15:32;103201.44;;;6.23;100.00
12987;BME280;58897;51.960;5.582;2023-02-11T09:17:59;103210.19;;;6.27;100.00
12987;BME280;58897;51.960;5.582;2023-02-11T09:20:26;103209.94;;;6.31;100.00
12987;BME280;58897;51.960;5.582;2023-02-11T09:22:53;103214.47;;;6.31;100.00
12987;BME280;58897;51.960;5.582;2023-02-11T09:25:20;103217.06;;;6.32;100.00
12987;BME280;58897;51.960;5.582;2023-02-11T09:27:46;103216.50;;;6.43;100.00
12987;BME280;58897;51.960;5.582;2023-02-11T09:30:13;103200.25;;;6.46;100.00
12987;BME280;58897;51.960;5.582;2023-02-11T09:32:39;103211.34;;;6.55;100.00
12987;BME280;58897;51.960;5.582;2023-02-11T09:35:06;103212.75;;;6.62;100.00
12987;BME280;58897;51.960;5.582;2023-02-11T09:37:32;103215.44;;;6.62;100.00
12987;BME280;58897;51.960;5.582;2023-02-11T09:40:02;103216.31;;;6.63;100.00
12987;BME280;58897;51.960;5.582;2023-02-11T09:45:19;103225.88;;;6.68;100.00
12987;BME280;58897;51.960;5.582;2023-02-11T09:47:51;103225.97;;;6.67;100.00
12987;BME280;58897;51.960;5.582;2023-02-11T09:50:26;103223.97;;;6.70;100.00
12987;BME280;58897;51.960;5.582;2023-02-11T09:52:59;103214.56;;;6.79;100.00
12987;BME280;58897;51.960;5.582;2023-02-11T09:55:35;103228.16;;;6.76;100.00
12987;BME280;58897;51.960;5.582;2023-02-11T09:58:16;103218.03;;;6.81;100.00
12987;BME280;58897;51.960;5.582;2023-02-11T10:03:25;103224.38;;;6.80;100.00
12987;BME280;58897;51.960;5.582;2023-02-11T10:06:29;103228.25;;;6.74;100.00
12987;BME280;58897;51.960;5.582;2023-02-11T10:09:07;103227.91;;;6.80;100.00
12987;BME280;58897;51.960;5.582;2023-02-11T10:17:30;103248.50;;;6.97;100.00
12987;BME280;58897;51.960;5.582;2023-02-11T10:22:43;103260.19;;;7.13;100.00
12987;BME280;58897;51.960;5.582;2023-02-11T10:25:34;103254.38;;;7.21;100.00
12987;BME280;58897;51.960;5.582;2023-02-11T10:28:12;103254.66;;;7.16;100.00
12987;BME280;58897;51.960;5.582;2023-02-11T10:33:39;103263.44;;;7.35;100.00
12987;BME280;58897;51.960;5.582;2023-02-11T10:36:12;103265.03;;;7.55;100.00
12987;BME280;58897;51.960;5.582;2023-02-11T10:38:39;103247.41;;;7.65;100.00
12987;BME280;58897;51.960;5.582;2023-02-11T10:41:09;103258.19;;;7.81;100.00
12987;BME280;58897;51.960;5.582;2023-02-11T10:43:41;103252.88;;;8.11;100.00
12987;BME280;58897;51.960;5.582;2023-02-11T10:46:15;103255.88;;;8.20;100.00
12987;BME280;58897;51.960;5.582;2023-02-11T10:48:51;103257.69;;;8.35;100.00
12987;BME280;58897;51.960;5.582;2023-02-11T10:51:21;103255.13;;;8.48;100.00
12987;BME280;58897;51.960;5.582;2023-02-11T10:54:16;103242.38;;;8.51;100.00
12987;BME280;58897;51.960;5.582;2023-02-11T10:56:47;103244.69;;;8.57;100.00
12987;BME280;58897;51.960;5.582;2023-02-11T10:59:33;103240.38;;;8.55;100.00
12987;BME280;58897;51.960;5.582;2023-02-11T11:02:15;103248.00;;;8.77;100.00
12987;BME280;58897;51.960;5.582;2023-02-11T11:04:46;103257.59;;;8.66;100.00
12987;BME280;58897;51.960;5.582;2023-02-11T11:12:29;103265.16;;;8.46;100.00
12987;BME280;58897;51.960;5.582;2023-02-11T11:15:12;103261.69;;;8.44;100.00
12987;BME280;58897;51.960;5.582;2023-02-11T11:17:39;103266.94;;;8.31;100.00
12987;BME280;58897;51.960;5.582;2023-02-11T11:20:27;103268.59;;;8.48;100.00
12987;BME280;58897;51.960;5.582;2023-02-11T11:23:12;103274.19;;;8.75;100.00
12987;BME280;58897;51.960;5.582;2023-02-11T11:25:44;103272.84;;;8.82;100.00
12987;BME280;58897;51.960;5.582;2023-02-11T11:28:21;103277.28;;;8.83;100.00
12987;BME280;58897;51.960;5.582;2023-02-11T11:30:50;103276.25;;;8.99;100.00
12987;BME280;58897;51.960;5.582;2023-02-11T11:33:28;103271.25;;;9.21;100.00
12987;BME280;58897;51.960;5.582;2023-02-11T11:36:02;103262.06;;;9.66;100.00
12987;BME280;58897;51.960;5.582;2023-02-11T11:38:30;103259.03;;;10.12;100.00
12987;BME280;58897;51.960;5.582;2023-02-11T11:41:15;103251.16;;;10.09;100.00
12987;BME280;58897;51.960;5.582;2023-02-11T11:49:11;103255.53;;;9.56;100.00
12987;BME280;58897;51.960;5.582;2023-02-11T11:51:41;103261.50;;;9.61;100.00
12987;BME280;58897;51.960;5.582;2023-02-11T11:54:12;103255.47;;;9.44;100.00
12987;BME280;58897;51.960;5.582;2023-02-11T11:56:53;103253.09;;;9.66;100.00
12987;BME280;58897;51.960;5.582;2023-02-11T11:59:21;103251.22;;;9.54;100.00
12987;BME280;58897;51.960;5.582;2023-02-11T12:29:47;103221.19;;;9.99;100.00
12987;BME280;58897;51.960;5.582;2023-02-11T12:37:46;103207.38;;;10.30;100.00
12987;BME280;58897;51.960;5.582;2023-02-11T12:40:33;103210.25;;;10.15;100.00
12987;BME280;58897;51.960;5.582;2023-02-11T12:43:52;103214.19;;;10.23;100.00
12987;BME280;58897;51.960;5.582;2023-02-11T12:49:14;103217.38;;;10.55;100.00
12987;BME280;58897;51.960;5.582;2023-02-11T12:52:06;103219.41;;;10.51;100.00
12987;BME280;58897;51.960;5.582;2023-02-11T12:54:42;103212.72;;;10.44;100.00
12987;BME280;58897;51.960;5.582;2023-02-11T12:57:20;103211.13;;;10.15;100.00
12987;BME280;58897;51.960;5.582;2023-02-11T12:59:57;103211.50;;;10.36;100.00
12987;BME280;58897;51.960;5.582;2023-02-11T13:05:26;103212.59;;;10.59;100.00
12987;BME280;58897;51.960;5.582;2023-02-11T13:08:01;103204.94;;;10.90;100.00
12987;BME280;58897;51.960;5.582;2023-02-11T13:10:37;103203.97;;;10.53;100.00
12987;BME280;58897;51.960;5.582;2023-02-11T13:16:02;103213.28;;;10.62;100.00
12987;BME280;58897;51.960;5.582;2023-02-11T13:18:46;103216.16;;;10.34;100.00
12987;BME280;58897;51.960;5.582;2023-02-11T13:23:53;103214.66;;;10.42;100.00
12987;BME280;58897;51.960;5.582;2023-02-11T13:26:30;103207.19;;;10.46;100.00
12987;BME280;58897;51.960;5.582;2023-02-11T13:32:11;103215.09;;;10.49;100.00
12987;BME280;58897;51.960;5.582;2023-02-11T13:37:33;103208.19;;;10.45;100.00
12987;BME280;58897;51.960;5.582;2023-02-11T13:42:33;103199.91;;;10.21;100.00
12987;BME280;58897;51.960;5.582;2023-02-11T13:48:02;103197.63;;;10.15;100.00
12987;BME280;58897;51.960;5.582;2023-02-11T13:50:38;103199.84;;;10.09;100.00
12987;BME280;58897;51.960;5.582;2023-02-11T13:53:13;103203.19;;;9.85;100.00
12987;BME280;58897;51.960;5.582;2023-02-11T13:55:44;103218.75;;;9.82;100.00
12987;BME280;58897;51.960;5.582;2023-02-11T14:00:47;103225.25;;;9.65;100.00
12987;BME280;58897;51.960;5.582;2023-02-11T14:03:30;103221.97;;;9.60;100.00
12987;BME280;58897;51.960;5.582;2023-02-11T14:06:21;103220.13;;;9.75;100.00
12987;BME280;58897;51.960;5.582;2023-02-11T14:14:30;103210.84;;;9.79;100.00
12987;BME280;58897;51.960;5.582;2023-02-11T14:19:37;103205.09;;;9.98;100.00
12987;BME280;58897;51.960;5.582;2023-02-11T14:22:14;103204.84;;;9.88;100.00
12987;BME280;58897;51.960;5.582;2023-02-11T14:27:30;103207.28;;;9.78;100.00
12987;BME280;58897;51.960;5.582;2023-02-11T14:30:11;103210.53;;;9.83;100.00
12987;BME280;58897;51.960;5.582;2023-02-11T14:38:06;103223.09;;;9.84;100.00
12987;BME280;58897;51.960;5.582;2023-02-11T14:40:57;103229.16;;;9.88;100.00
12987;BME280;58897;51.960;5.582;2023-02-11T14:43:32;103231.91;;;10.01;100.00
12987;BME280;58897;51.960;5.582;2023-02-11T14:46:01;103222.16;;;9.98;100.00
12987;BME280;58897;51.960;5.582;2023-02-11T14:48:36;103227.41;;;9.87;100.00
12987;BME280;58897;51.960;5.582;2023-02-11T14:51:10;103222.41;;;9.81;100.00
12987;BME280;58897;51.960;5.582;2023-02-11T14:53:43;103223.09;;;9.84;100.00
12987;BME280;58897;51.960;5.582;2023-02-11T14:56:24;103223.94;;;9.85;100.00
12987;BME280;58897;51.960;5.582;2023-02-11T14:58:53;103222.09;;;9.85;100.00
12987;BME280;58897;51.960;5.582;2023-02-11T15:01:34;103223.94;;;9.85;100.00
12987;BME280;58897;51.960;5.582;2023-02-11T15:04:04;103221.75;;;9.77;100.00
12987;BME280;58897;51.960;5.582;2023-02-11T15:09:06;103221.81;;;9.90;100.00
12987;BME280;58897;51.960;5.582;2023-02-11T15:11:40;103227.16;;;9.77;100.00
12987;BME280;58897;51.960;5.582;2023-02-11T15:14:16;103220.03;;;9.62;100.00
12987;BME280;58897;51.960;5.582;2023-02-11T15:16:45;103226.00;;;9.67;100.00
12987;BME280;58897;51.960;5.582;2023-02-11T15:19:30;103234.09;;;9.67;100.00
12987;BME280;58897;51.960;5.582;2023-02-11T15:22:01;103226.13;;;9.66;100.00
12987;BME280;58897;51.960;5.582;2023-02-11T15:24:32;103230.56;;;9.53;100.00
12987;BME280;58897;51.960;5.582;2023-02-11T15:27:12;103235.28;;;9.49;100.00